createdAt,value
2019-01-27T00:01:08.598Z,100324.45
2019-01-27T00:03:38.482Z,100326.61
2019-01-27T00:06:07.629Z,100329.50
2019-01-27T00:08:36.694Z,100321.32
2019-01-27T00:11:05.759Z,100316.68
2019-01-27T00:13:34.870Z,100303.03
2019-01-27T00:16:03.931Z,100298.87
2019-01-27T00:18:33.000Z,100297.69
2019-01-27T00:21:02.103Z,100297.91
2019-01-27T00:23:31.181Z,100296.88
2019-01-27T00:26:00.248Z,100300.95
2019-01-27T00:28:29.654Z,100293.66
2019-01-27T00:30:58.734Z,100291.40
2019-01-27T00:33:27.812Z,100290.00
2019-01-27T00:35:57.249Z,100292.38
2019-01-27T00:38:26.332Z,100285.20
2019-01-27T00:40:55.405Z,100282.45
2019-01-27T00:43:24.513Z,100274.89
2019-01-27T00:45:53.588Z,100272.00
2019-01-27T00:48:22.653Z,100275.15
2019-01-27T00:50:51.786Z,100272.51
2019-01-27T00:53:20.857Z,100267.67
2019-01-27T00:55:49.934Z,100261.13
2019-01-27T00:58:19.034Z,100266.19
2019-01-27T01:00:48.119Z,100261.02
2019-01-27T01:03:17.168Z,100262.69
2019-01-27T01:05:46.274Z,100265.77
2019-01-27T01:08:15.349Z,100260.44
2019-01-27T01:10:44.418Z,100257.55
2019-01-27T01:13:13.531Z,100256.44
2019-01-27T01:15:42.599Z,100246.94
2019-01-27T01:18:11.692Z,100247.33
2019-01-27T01:20:40.793Z,100247.53
2019-01-27T01:23:09.852Z,100244.02
2019-01-27T01:25:38.924Z,100247.83
2019-01-27T01:28:08.024Z,100250.20
2019-01-27T01:30:37.109Z,100248.27
2019-01-27T01:33:06.170Z,100245.34
2019-01-27T01:35:35.305Z,100242.45
2019-01-27T01:38:04.365Z,100242.60
2019-01-27T01:40:33.457Z,100233.05
2019-01-27T01:43:02.581Z,100235.58
2019-01-27T01:45:31.646Z,100230.19
2019-01-27T01:48:00.719Z,100240.48
2019-01-27T01:50:29.812Z,100231.05
2019-01-27T01:52:58.862Z,100217.47
2019-01-27T01:55:27.940Z,100220.47
2019-01-27T01:57:57.116Z,100228.91
2019-01-27T02:00:26.144Z,100211.48
2019-01-27T02:02:55.216Z,100213.27
2019-01-27T02:05:24.354Z,100209.81
2019-01-27T02:07:53.396Z,100206.00
2019-01-27T02:10:22.573Z,100204.22
2019-01-27T02:12:51.694Z,100197.27
2019-01-27T02:15:21.566Z,100187.67
2019-01-27T02:17:50.649Z,100191.00
2019-01-27T02:20:19.771Z,100188.85
2019-01-27T02:22:48.834Z,100185.26
2019-01-27T02:25:17.904Z,100181.06
2019-01-27T02:27:47.010Z,100172.73
2019-01-27T02:30:16.428Z,100171.55
2019-01-27T02:32:45.474Z,100171.02
2019-01-27T02:35:14.576Z,100169.30
2019-01-27T02:37:43.642Z,100158.44
2019-01-27T02:40:12.696Z,100153.68
2019-01-27T02:42:41.822Z,100144.81
2019-01-27T02:45:12.765Z,100150.13
2019-01-27T02:47:41.877Z,100149.80
2019-01-27T02:50:11.069Z,100150.56
2019-01-27T02:52:40.135Z,100143.72
2019-01-27T02:55:09.194Z,100140.28
2019-01-27T02:57:38.291Z,100141.56
2019-01-27T03:00:08.269Z,100143.52
2019-01-27T03:02:37.365Z,100136.94
2019-01-27T03:05:06.527Z,100133.89
2019-01-27T03:07:35.616Z,100132.78
2019-01-27T03:10:04.666Z,100133.25
2019-01-27T03:12:33.826Z,100134.55
2019-01-27T03:15:02.883Z,100133.80
2019-01-27T03:17:31.941Z,100119.20
2019-01-27T03:20:01.022Z,100107.18
2019-01-27T03:22:30.078Z,100102.59
2019-01-27T03:24:59.154Z,100100.48
2019-01-27T03:27:28.265Z,100098.44
2019-01-27T03:29:57.335Z,100092.31
2019-01-27T03:32:26.399Z,100094.31
2019-01-27T03:34:55.501Z,100091.23
2019-01-27T03:37:24.574Z,100090.13
2019-01-27T03:39:53.662Z,100089.77
2019-01-27T03:42:22.748Z,100085.19
2019-01-27T03:44:51.823Z,100086.52
2019-01-27T03:47:20.873Z,100088.85
2019-01-27T03:49:50.113Z,100090.78
2019-01-27T03:52:19.516Z,100089.89
2019-01-27T03:54:48.519Z,100096.51
2019-01-27T03:57:17.615Z,100090.64
2019-01-27T03:59:46.681Z,100083.70
2019-01-27T04:02:15.753Z,100077.86
2019-01-27T04:04:44.885Z,100069.77
2019-01-27T04:07:13.959Z,100065.99
2019-01-27T04:09:43.031Z,100050.55
2019-01-27T04:12:12.132Z,100046.93
2019-01-27T04:14:41.203Z,100044.47
2019-01-27T04:17:10.276Z,100038.48
2019-01-27T04:19:39.376Z,100039.50
2019-01-27T04:22:08.453Z,100038.80
2019-01-27T04:24:37.871Z,100032.39
2019-01-27T04:27:06.879Z,100036.48
2019-01-27T04:29:35.945Z,100033.69
2019-01-27T04:32:05.023Z,100030.72
2019-01-27T04:34:34.122Z,100036.22
2019-01-27T04:37:03.208Z,100031.53
2019-01-27T04:39:32.271Z,100028.99
2019-01-27T04:42:01.460Z,100027.17
2019-01-27T04:44:30.532Z,100026.91
2019-01-27T04:46:59.600Z,100023.71
2019-01-27T04:49:28.717Z,100019.45
2019-01-27T04:51:57.786Z,100010.55
2019-01-27T04:54:26.847Z,100009.27
2019-01-27T04:56:55.991Z,100009.42
2019-01-27T04:59:25.065Z,100006.58
2019-01-27T05:01:54.126Z,99993.19
2019-01-27T05:04:23.221Z,99991.41
2019-01-27T05:06:52.281Z,99998.37
2019-01-27T05:09:22.185Z,99986.56
2019-01-27T05:11:51.277Z,99980.35
2019-01-27T05:14:20.340Z,99978.84
2019-01-27T05:16:49.402Z,99970.27
2019-01-27T05:19:18.521Z,99971.83
2019-01-27T05:21:47.577Z,99967.42
2019-01-27T05:24:16.646Z,99959.37
2019-01-27T05:26:45.732Z,99962.39
2019-01-27T05:29:14.789Z,99950.31
2019-01-27T05:31:43.858Z,99953.01
2019-01-27T05:34:12.939Z,99945.45
2019-01-27T05:36:41.996Z,99946.58
2019-01-27T05:39:11.056Z,99939.20
2019-01-27T05:41:40.153Z,99939.36
2019-01-27T05:44:09.490Z,99936.35
2019-01-27T05:46:38.485Z,99932.95
2019-01-27T05:49:07.883Z,99917.80
2019-01-27T05:51:36.880Z,99915.52
2019-01-27T05:54:05.944Z,99916.02
2019-01-27T05:56:35.037Z,99917.41
2019-01-27T05:59:04.101Z,99916.98
2019-01-27T06:01:33.166Z,99916.98
2019-01-27T06:04:02.270Z,99912.83
2019-01-27T06:06:31.321Z,99912.49
2019-01-27T06:09:00.373Z,99908.73
2019-01-27T06:11:30.332Z,99910.35
2019-01-27T06:13:59.382Z,99899.08
2019-01-27T06:16:28.451Z,99892.49
2019-01-27T06:18:57.541Z,99892.88
2019-01-27T06:21:26.609Z,99888.39
2019-01-27T06:23:55.659Z,99893.89
2019-01-27T06:26:24.978Z,99887.59
2019-01-27T06:28:54.030Z,99888.39
2019-01-27T06:31:23.097Z,99882.23
2019-01-27T06:33:52.190Z,99890.05
2019-01-27T06:36:21.252Z,99890.27
2019-01-27T06:38:50.311Z,99888.74
2019-01-27T06:41:19.399Z,99896.41
2019-01-27T06:43:48.468Z,99886.20
2019-01-27T06:46:17.578Z,99889.35
2019-01-27T06:48:46.681Z,99880.11
2019-01-27T06:51:15.742Z,99877.88
2019-01-27T06:53:44.797Z,99880.55
2019-01-27T06:56:13.888Z,99883.95
2019-01-27T07:01:28.121Z,99869.64
2019-01-27T07:03:57.960Z,99869.88
2019-01-27T07:06:27.027Z,99866.44
2019-01-27T07:08:56.236Z,99869.73
2019-01-27T07:11:25.288Z,99867.14
2019-01-27T07:16:38.701Z,99866.64
2019-01-27T07:19:07.782Z,99866.80
2019-01-27T07:21:37.655Z,99861.25
2019-01-27T07:24:07.521Z,99863.20
2019-01-27T07:26:37.439Z,99850.12
2019-01-27T07:29:06.504Z,99841.70
2019-01-27T07:31:38.323Z,99848.92
2019-01-27T07:34:12.804Z,99840.98
2019-01-27T07:36:41.917Z,99838.42
2019-01-27T07:39:13.800Z,99835.02
2019-01-27T07:41:42.922Z,99828.23
2019-01-27T07:44:11.974Z,99824.30
2019-01-27T07:46:42.976Z,99823.16
2019-01-27T07:49:18.003Z,99821.35
2019-01-27T07:51:47.995Z,99824.72
2019-01-27T07:54:21.993Z,99811.09
2019-01-27T07:56:52.027Z,99824.92
2019-01-27T07:59:26.166Z,99813.30
2019-01-27T08:02:00.081Z,99805.72
2019-01-27T08:04:29.157Z,99812.56
2019-01-27T08:07:03.060Z,99803.03
2019-01-27T08:09:32.942Z,99803.25
2019-01-27T08:12:02.013Z,99796.33
2019-01-27T08:14:32.790Z,99804.25
2019-01-27T08:17:01.926Z,99797.66
2019-01-27T08:22:16.779Z,99791.84
2019-01-27T08:24:48.702Z,99787.78
2019-01-27T08:27:19.765Z,99787.87
2019-01-27T08:29:57.487Z,99778.36
2019-01-27T08:32:25.662Z,99772.58
2019-01-27T08:34:54.737Z,99776.80
2019-01-27T08:37:29.637Z,99776.50
2019-01-27T08:39:58.689Z,99785.13
2019-01-27T08:42:27.758Z,99776.27
2019-01-27T08:44:57.770Z,99772.42
2019-01-27T08:47:26.821Z,99773.09
2019-01-27T08:49:55.902Z,99778.54
2019-01-27T08:52:25.008Z,99780.03
2019-01-27T08:54:54.071Z,99770.11
2019-01-27T08:57:23.132Z,99767.31
2019-01-27T08:59:52.217Z,99760.93
2019-01-27T09:02:21.273Z,99748.89
2019-01-27T09:04:51.284Z,99739.88
2019-01-27T09:07:22.307Z,99743.00
2019-01-27T09:09:52.296Z,99735.67
2019-01-27T09:12:27.386Z,99720.34
2019-01-27T09:14:58.050Z,99726.77
2019-01-27T09:17:29.902Z,99726.15
2019-01-27T09:19:58.952Z,99732.38
2019-01-27T09:22:28.828Z,99721.67
2019-01-27T09:24:57.926Z,99720.36
2019-01-27T09:27:26.985Z,99729.89
2019-01-27T09:30:01.040Z,99722.50
2019-01-27T09:32:30.105Z,99729.38
2019-01-27T09:35:04.653Z,99724.14
2019-01-27T09:37:35.627Z,99728.98
2019-01-27T09:40:10.367Z,99725.09
2019-01-27T09:42:44.933Z,99713.09
2019-01-27T09:45:14.050Z,99711.43
2019-01-27T09:47:48.827Z,99697.64
2019-01-27T09:50:20.769Z,99697.86
2019-01-27T09:52:52.786Z,99701.02
2019-01-27T09:55:21.878Z,99703.25
2019-01-27T09:57:53.777Z,99700.38
2019-01-27T10:00:22.899Z,99691.52
2019-01-27T10:02:55.739Z,99699.33
2019-01-27T10:05:25.862Z,99697.09
2019-01-27T10:08:00.412Z,99692.09
2019-01-27T10:10:35.447Z,99686.19
2019-01-27T10:13:05.513Z,99681.39
2019-01-27T10:18:19.305Z,99670.29
2019-01-27T10:20:52.381Z,99667.55
2019-01-27T10:23:22.259Z,99658.28
2019-01-27T10:25:51.350Z,99663.53
2019-01-27T10:28:20.426Z,99654.38
2019-01-27T10:30:49.496Z,99650.80
2019-01-27T10:33:23.753Z,99645.80
2019-01-27T10:35:52.802Z,99635.30
2019-01-27T10:38:22.787Z,99623.72
2019-01-27T10:40:51.863Z,99626.06
2019-01-27T10:43:23.782Z,99619.53
2019-01-27T10:45:52.867Z,99623.64
2019-01-27T10:48:23.857Z,99615.00
2019-01-27T10:50:57.912Z,99605.01
2019-01-27T10:53:26.951Z,99601.30
2019-01-27T10:55:57.865Z,99601.31
2019-01-27T10:58:26.959Z,99589.20
2019-01-27T11:00:57.952Z,99578.88
2019-01-27T11:03:31.848Z,99573.30
2019-01-27T11:06:02.828Z,99579.06
2019-01-27T11:08:31.874Z,99580.83
2019-01-27T11:11:01.806Z,99577.41
2019-01-27T11:13:31.676Z,99570.02
2019-01-27T11:16:02.566Z,99570.90
2019-01-27T11:18:36.608Z,99575.14
2019-01-27T11:21:05.667Z,99567.98
2019-01-27T11:23:36.653Z,99567.52
2019-01-27T11:26:05.800Z,99563.59
2019-01-27T11:28:34.857Z,99549.83
2019-01-27T11:31:07.789Z,99548.69
2019-01-27T11:33:40.679Z,99532.57
2019-01-27T11:36:15.306Z,99530.06
2019-01-27T11:38:44.350Z,99539.25
2019-01-27T11:41:14.205Z,99519.11
2019-01-27T11:43:44.130Z,99510.99
2019-01-27T11:46:17.190Z,99506.73
2019-01-27T11:48:48.198Z,99505.41
2019-01-27T11:51:18.402Z,99501.88
2019-01-27T11:53:47.460Z,99499.37
2019-01-27T11:56:16.564Z,99498.28
2019-01-27T11:58:45.620Z,99488.12
2019-01-27T12:01:14.670Z,99474.64
2019-01-27T12:03:43.815Z,99480.75
2019-01-27T12:06:12.881Z,99476.15
2019-01-27T12:08:41.937Z,99475.61
2019-01-27T12:11:11.023Z,99474.13
2019-01-27T12:13:40.073Z,99477.78
2019-01-27T12:16:09.955Z,99477.61
2019-01-27T12:18:39.032Z,99474.36
2019-01-27T12:21:08.096Z,99464.34
2019-01-27T12:23:37.210Z,99473.69
2019-01-27T12:26:06.336Z,99467.45
2019-01-27T12:28:35.390Z,99462.92
2019-01-27T12:31:04.445Z,99446.45
2019-01-27T12:33:33.519Z,99447.08
2019-01-27T12:36:02.566Z,99436.65
2019-01-27T12:38:31.622Z,99423.64
2019-01-27T12:41:00.805Z,99430.09
2019-01-27T12:43:29.855Z,99430.63
2019-01-27T12:45:58.924Z,99433.33
2019-01-27T12:48:28.045Z,99425.10
2019-01-27T12:50:57.110Z,99423.85
2019-01-27T12:53:26.165Z,99410.89
2019-01-27T12:55:55.250Z,99413.45
2019-01-27T12:58:24.304Z,99402.91
2019-01-27T13:00:53.394Z,99394.98
2019-01-27T13:03:22.484Z,99398.19
2019-01-27T13:05:51.545Z,99389.73
2019-01-27T13:08:20.606Z,99392.63
2019-01-27T13:10:49.743Z,99395.42
2019-01-27T13:13:18.807Z,99386.85
2019-01-27T13:15:47.863Z,99387.48
2019-01-27T13:18:16.945Z,99377.70
2019-01-27T13:21:02.284Z,99382.80
2019-01-27T13:23:31.939Z,99384.05
2019-01-27T13:26:01.001Z,99384.22
2019-01-27T13:28:30.062Z,99383.56
2019-01-27T13:30:59.187Z,99386.94
2019-01-27T13:33:28.232Z,99387.34
2019-01-27T13:35:57.282Z,99380.05
2019-01-27T13:38:26.374Z,99385.19
2019-01-27T13:40:55.476Z,99380.59
2019-01-27T13:43:24.467Z,99374.27
2019-01-27T13:45:53.545Z,99369.41
2019-01-27T13:48:22.619Z,99355.78
2019-01-27T13:50:51.668Z,99353.98
2019-01-27T13:53:20.759Z,99362.95
2019-01-27T13:55:49.815Z,99346.19
2019-01-27T13:58:18.877Z,99343.45
2019-01-27T14:00:47.953Z,99349.83
2019-01-27T14:03:17.009Z,99347.04
2019-01-27T14:05:46.058Z,99350.17
2019-01-27T14:08:15.135Z,99346.25
2019-01-27T14:10:44.189Z,99352.02
2019-01-27T14:13:13.249Z,99352.63
2019-01-27T14:15:42.585Z,99350.12
2019-01-27T14:18:11.640Z,99342.29
2019-01-27T14:20:40.695Z,99347.36
2019-01-27T14:23:09.774Z,99342.73
2019-01-27T14:25:38.836Z,99339.80
2019-01-27T14:28:07.891Z,99338.39
2019-01-27T14:30:37.800Z,99337.91
2019-01-27T14:33:06.870Z,99338.49
2019-01-27T14:35:35.930Z,99347.63
2019-01-27T14:38:05.032Z,99346.84
2019-01-27T14:40:34.096Z,99337.54
2019-01-27T14:43:03.154Z,99344.48
2019-01-27T14:45:32.251Z,99325.16
2019-01-27T14:48:01.280Z,99322.45
2019-01-27T14:50:30.358Z,99320.48
2019-01-27T14:52:59.439Z,99321.48
2019-01-27T14:55:28.497Z,99320.44
2019-01-27T14:57:57.887Z,99319.97
2019-01-27T15:00:26.662Z,99325.00
2019-01-27T15:02:55.716Z,99327.83
2019-01-27T15:05:24.778Z,99328.62
2019-01-27T15:07:53.870Z,99328.93
2019-01-27T15:10:22.945Z,99327.64
2019-01-27T15:12:52.006Z,99332.36
2019-01-27T15:15:21.128Z,99336.63
2019-01-27T15:17:50.145Z,99339.45
2019-01-27T15:20:25.880Z,99341.19
2019-01-27T15:22:54.934Z,99333.78
2019-01-27T15:25:23.989Z,99334.25
2019-01-27T15:27:53.069Z,99336.36
2019-01-27T15:30:25.060Z,99332.56
2019-01-27T15:32:54.153Z,99336.96
2019-01-27T15:35:23.193Z,99329.31
2019-01-27T15:37:52.252Z,99324.16
2019-01-27T15:40:21.368Z,99322.53
2019-01-27T15:42:50.439Z,99317.05
2019-01-27T15:45:19.494Z,99302.27
2019-01-27T15:47:48.575Z,99304.30
2019-01-27T15:50:18.455Z,99301.76
2019-01-27T15:52:47.511Z,99301.86
2019-01-27T15:55:16.593Z,99303.05
2019-01-27T15:57:45.660Z,99297.20
2019-01-27T16:00:15.518Z,99290.20
2019-01-27T16:02:44.740Z,99288.91
2019-01-27T16:05:13.802Z,99291.41
2019-01-27T16:07:42.882Z,99289.80
2019-01-27T16:10:11.972Z,99293.33
2019-01-27T16:12:41.036Z,99297.06
2019-01-27T16:15:10.923Z,99288.77
2019-01-27T16:17:40.050Z,99286.00
2019-01-27T16:20:09.113Z,99278.92
2019-01-27T16:22:39.076Z,99278.84
2019-01-27T16:25:08.191Z,99269.27
2019-01-27T16:27:37.253Z,99274.86
2019-01-27T16:30:07.139Z,99267.91
2019-01-27T16:32:36.235Z,99262.23
2019-01-27T16:35:05.300Z,99267.14
2019-01-27T16:37:34.359Z,99271.75
2019-01-27T16:40:03.469Z,99278.14
2019-01-27T16:42:32.514Z,99271.48
2019-01-27T16:45:01.570Z,99268.30
2019-01-27T16:47:30.671Z,99259.66
2019-01-27T16:49:59.788Z,99256.46
2019-01-27T16:52:28.856Z,99257.41
2019-01-27T16:54:57.956Z,99266.95
2019-01-27T16:57:27.007Z,99265.98
2019-01-27T16:59:56.061Z,99266.91
2019-01-27T17:02:25.146Z,99267.91
2019-01-27T17:04:54.214Z,99278.33
2019-01-27T17:07:23.305Z,99283.81
2019-01-27T17:09:52.511Z,99278.92
2019-01-27T17:12:21.604Z,99273.45
2019-01-27T17:14:50.622Z,99277.68
2019-01-27T17:17:19.708Z,99264.31
2019-01-27T17:19:48.779Z,99269.11
2019-01-27T17:22:17.843Z,99266.80
2019-01-27T17:24:46.920Z,99268.23
2019-01-27T17:27:16.001Z,99264.25
2019-01-27T17:29:45.059Z,99261.83
2019-01-27T17:32:14.344Z,99250.88
2019-01-27T17:34:43.429Z,99247.08
2019-01-27T17:37:12.491Z,99250.07
2019-01-27T17:39:41.598Z,99243.17
2019-01-27T17:42:10.656Z,99248.33
2019-01-27T17:44:39.724Z,99240.95
2019-01-27T17:47:08.816Z,99237.39
2019-01-27T17:49:37.871Z,99231.33
2019-01-27T17:52:06.922Z,99228.06
2019-01-27T17:54:36.045Z,99225.09
2019-01-27T17:57:05.105Z,99218.27
2019-01-27T17:59:34.162Z,99213.28
2019-01-27T18:02:06.068Z,99201.84
2019-01-27T18:04:35.109Z,99193.73
2019-01-27T18:07:04.170Z,99196.25
2019-01-27T18:09:37.283Z,99215.34
2019-01-27T18:14:49.727Z,99225.73
2019-01-27T18:17:18.780Z,99233.97
2019-01-27T18:19:47.847Z,99241.77
2019-01-27T18:22:16.946Z,99242.31
2019-01-27T18:24:46.975Z,99233.19
2019-01-27T18:27:16.030Z,99245.62
2019-01-27T18:29:45.132Z,99235.58
2019-01-27T18:32:14.206Z,99235.31
2019-01-27T18:34:43.260Z,99238.29
2019-01-27T18:37:12.355Z,99243.53
2019-01-27T18:39:41.412Z,99240.50
2019-01-27T18:42:10.503Z,99232.05
2019-01-27T18:44:39.593Z,99231.60
2019-01-27T18:47:08.635Z,99224.77
2019-01-27T18:49:37.721Z,99212.40
2019-01-27T18:52:06.814Z,99209.02
2019-01-27T18:54:37.831Z,99199.20
2019-01-27T18:57:06.884Z,99210.68
2019-01-27T18:59:41.443Z,99225.64
2019-01-27T19:02:13.169Z,99222.66
2019-01-27T19:04:41.508Z,99228.77
2019-01-27T19:07:13.466Z,99228.31
2019-01-27T19:09:42.560Z,99232.88
2019-01-27T19:12:15.786Z,99236.51
2019-01-27T19:14:44.880Z,99230.31
2019-01-27T19:17:19.379Z,99229.48
2019-01-27T19:19:48.431Z,99235.53
2019-01-27T19:22:18.419Z,99229.36
2019-01-27T19:24:53.972Z,99222.13
2019-01-27T19:27:24.781Z,99209.19
2019-01-27T19:29:55.723Z,99207.95
2019-01-27T19:32:24.783Z,99210.08
2019-01-27T19:34:55.784Z,99215.22
2019-01-27T19:37:28.305Z,99213.52
2019-01-27T19:40:01.112Z,99220.83
2019-01-27T19:42:30.256Z,99227.86
2019-01-27T19:45:05.191Z,99216.02
2019-01-27T19:47:35.861Z,99215.27
2019-01-27T19:50:04.918Z,99216.14
2019-01-27T19:52:37.943Z,99217.52
2019-01-27T19:55:08.811Z,99216.05
2019-01-27T19:57:43.454Z,99215.48
2019-01-27T20:00:14.006Z,99208.53
2019-01-27T20:02:48.588Z,99212.81
2019-01-27T20:05:18.595Z,99207.16
2019-01-27T20:07:47.648Z,99208.45
2019-01-27T20:10:16.755Z,99204.27
2019-01-27T20:12:46.660Z,99202.45
2019-01-27T20:15:16.554Z,99198.33
2019-01-27T20:17:48.695Z,99193.64
2019-01-27T20:20:23.214Z,99190.95
2019-01-27T20:22:57.783Z,99190.38
2019-01-27T20:25:26.869Z,99190.66
2019-01-27T20:27:56.761Z,99187.94
2019-01-27T20:30:25.837Z,99183.11
2019-01-27T20:32:55.865Z,99191.17
2019-01-27T20:35:27.903Z,99183.34
2019-01-27T20:38:00.783Z,99179.80
2019-01-27T20:40:29.859Z,99180.75
2019-01-27T20:42:59.733Z,99178.31
2019-01-27T20:45:31.721Z,99177.83
2019-01-27T20:48:06.275Z,99175.33
2019-01-27T20:53:19.780Z,99170.81
2019-01-27T20:55:48.834Z,99167.14
2019-01-27T20:58:17.898Z,99169.20
2019-01-27T21:00:46.961Z,99171.58
2019-01-27T21:03:21.036Z,99174.33
2019-01-27T21:05:52.926Z,99174.72
2019-01-27T21:08:22.054Z,99179.09
2019-01-27T21:10:52.074Z,99174.98
2019-01-27T21:13:26.135Z,99173.69
2019-01-27T21:15:59.151Z,99170.39
2019-01-27T21:18:29.230Z,99176.90
2019-01-27T21:20:58.284Z,99176.98
2019-01-27T21:23:27.343Z,99174.37
2019-01-27T21:25:56.449Z,99175.94
2019-01-27T21:28:25.503Z,99172.79
2019-01-27T21:30:54.573Z,99166.93
2019-01-27T21:33:23.665Z,99171.55
2019-01-27T21:35:52.720Z,99171.40
2019-01-27T21:38:21.788Z,99169.45
2019-01-27T21:40:50.880Z,99165.06
2019-01-27T21:43:19.942Z,99168.50
2019-01-27T21:45:49.852Z,99166.43
2019-01-27T21:48:18.956Z,99166.09
2019-01-27T21:50:48.011Z,99165.34
2019-01-27T21:53:17.074Z,99165.23
2019-01-27T21:55:46.201Z,99167.77
2019-01-27T21:58:15.259Z,99171.41
2019-01-27T22:00:44.327Z,99173.19
2019-01-27T22:03:13.461Z,99171.25
2019-01-27T22:05:42.526Z,99168.55
2019-01-27T22:08:11.589Z,99174.31
2019-01-27T22:10:40.703Z,99168.53
2019-01-27T22:13:09.738Z,99168.66
2019-01-27T22:15:38.788Z,99171.02
2019-01-27T22:18:07.888Z,99170.78
2019-01-27T22:20:36.948Z,99169.16
2019-01-27T22:23:06.188Z,99165.73
2019-01-27T22:25:35.120Z,99163.36
2019-01-27T22:28:04.173Z,99159.88
2019-01-27T22:30:33.223Z,99154.28
2019-01-27T22:33:02.435Z,99163.02
2019-01-27T22:35:31.486Z,99164.93
2019-01-27T22:38:00.540Z,99161.22
2019-01-27T22:40:29.674Z,99161.02
2019-01-27T22:42:58.706Z,99167.55
2019-01-27T22:45:27.760Z,99164.97
2019-01-27T22:47:56.846Z,99155.30
2019-01-27T22:50:25.898Z,99157.53
2019-01-27T22:52:54.948Z,99162.80
2019-01-27T22:55:24.047Z,99154.80
2019-01-27T22:57:53.114Z,99159.06
2019-01-27T23:00:23.096Z,99156.70
2019-01-27T23:02:52.173Z,99158.45
2019-01-27T23:05:21.328Z,99157.83
2019-01-27T23:07:50.391Z,99157.63
2019-01-27T23:10:19.459Z,99151.96
2019-01-27T23:12:48.509Z,99160.59
2019-01-27T23:15:17.554Z,99161.31
2019-01-27T23:17:46.666Z,99161.70
2019-01-27T23:20:15.722Z,99151.30
2019-01-27T23:22:44.770Z,99158.34
2019-01-27T23:25:13.856Z,99155.37
2019-01-27T23:27:42.906Z,99155.88
2019-01-27T23:30:11.961Z,99156.19
2019-01-27T23:32:41.041Z,99163.22
2019-01-27T23:35:10.097Z,99165.44
2019-01-27T23:37:39.144Z,99154.85
2019-01-27T23:40:08.259Z,99158.30
2019-01-27T23:42:37.305Z,99161.95
2019-01-27T23:45:06.364Z,99167.89
2019-01-27T23:47:35.430Z,99156.74
2019-01-27T23:50:04.492Z,99167.11
2019-01-27T23:52:33.548Z,99164.92
2019-01-27T23:55:02.630Z,99160.62
2019-01-27T23:57:31.674Z,99155.98
